Monterey, Virginia
Current Conditions -  °F | °C
As of 12:15 AM on Sunday 26 Oct 2014 (Local Time) from KVBW Reporting Station
Overcast Overcast  
Wind Chill: 59°   Ceiling: 5500
Heat Index: 59°   Visibility: 10mi
Dew Point: 47°   Wind: 6mph
Humidity: 66%   Direction: 200°SSW
Pressure: 29.77"   Gusts: NA
Location:  38.41°N, 79.58°W
Report Text: KVBW 260415Z AUTO 20005KT 10SM OVC055 15/09 A2977 RMK AO2 T01500086
Loading
Personal Weather Stations






























Interactive Weather Map
Tropical Storm Tracking
New forecast layout! Learn more

10-Day Weather Forecast

Advertisements
Track Severe Weather on mobile